createdAt,value
2023-01-05T00:01:09.872Z,23.27
2023-01-05T00:03:37.452Z,22.30
2023-01-05T00:06:08.056Z,20.97
2023-01-05T00:08:37.408Z,24.00
2023-01-05T00:11:30.603Z,21.47
2023-01-05T00:14:15.879Z,21.07
2023-01-05T00:17:00.869Z,24.57
2023-01-05T00:19:48.522Z,22.57
2023-01-05T00:22:34.997Z,28.43
2023-01-05T00:25:13.456Z,21.60
2023-01-05T00:27:42.066Z,25.73
2023-01-05T00:30:10.505Z,22.27
2023-01-05T00:32:37.093Z,21.53
2023-01-05T00:35:04.117Z,22.87
2023-01-05T00:37:32.969Z,23.20
2023-01-05T00:39:59.481Z,23.33
2023-01-05T00:42:26.154Z,23.17
2023-01-05T00:44:52.699Z,26.87
2023-01-05T00:47:19.189Z,18.97
2023-01-05T00:49:45.764Z,25.67
2023-01-05T00:52:12.238Z,25.47
2023-01-05T00:54:38.720Z,21.17
2023-01-05T00:57:07.197Z,25.67
2023-01-05T00:59:33.939Z,24.30
2023-01-05T01:02:00.649Z,23.97
2023-01-05T01:04:27.495Z,24.27
2023-01-05T01:06:54.756Z,18.00
2023-01-05T01:09:21.733Z,21.93
2023-01-05T01:11:48.575Z,16.77
2023-01-05T01:14:16.019Z,29.20
2023-01-05T01:16:42.936Z,23.87
2023-01-05T01:19:17.288Z,24.37
2023-01-05T01:21:44.013Z,24.27
2023-01-05T01:24:17.129Z,23.90
2023-01-05T01:26:43.815Z,19.60
2023-01-05T01:29:10.917Z,22.47
2023-01-05T01:31:37.619Z,20.43
2023-01-05T01:34:04.580Z,21.00
2023-01-05T01:36:31.403Z,19.67
2023-01-05T01:38:57.914Z,20.00
2023-01-05T01:41:24.405Z,20.43
2023-01-05T01:43:53.616Z,20.00
2023-01-05T01:46:21.465Z,21.90
2023-01-05T01:48:56.756Z,25.50
2023-01-05T01:51:44.798Z,28.63
2023-01-05T01:54:15.706Z,19.57
2023-01-05T01:56:47.546Z,22.30
2023-01-05T01:59:14.605Z,21.30
2023-01-05T02:01:41.164Z,17.70
2023-01-05T02:04:10.215Z,24.60
2023-01-05T02:06:37.476Z,20.87
2023-01-05T02:09:05.874Z,25.27
2023-01-05T02:11:58.780Z,21.33
2023-01-05T02:14:45.515Z,21.87
2023-01-05T02:17:18.030Z,21.90
2023-01-05T02:19:59.865Z,24.30
2023-01-05T02:22:37.140Z,26.47
2023-01-05T02:25:25.358Z,17.30
2023-01-05T02:28:16.073Z,29.03
2023-01-05T02:31:03.556Z,22.17
2023-01-05T02:33:54.967Z,25.07
2023-01-05T02:36:30.290Z,26.60
2023-01-05T02:39:06.326Z,25.73
2023-01-05T02:41:39.332Z,24.60
2023-01-05T02:44:08.259Z,20.20
2023-01-05T02:46:34.829Z,25.13
2023-01-05T02:49:04.006Z,20.63
2023-01-05T02:51:37.215Z,24.00
2023-01-05T02:54:09.212Z,28.07
2023-01-05T02:56:40.652Z,29.63
2023-01-05T02:59:20.087Z,21.77
2023-01-05T03:01:51.586Z,30.60
2023-01-05T03:04:25.442Z,29.03
2023-01-05T03:07:02.256Z,25.40
2023-01-05T03:09:36.659Z,23.23
2023-01-05T03:12:44.169Z,25.60
2023-01-05T03:15:21.027Z,26.37
2023-01-05T03:17:51.681Z,22.20
2023-01-05T03:20:23.550Z,18.80
2023-01-05T03:23:12.580Z,26.03
2023-01-05T03:25:59.016Z,26.77
2023-01-05T03:28:56.575Z,24.70
2023-01-05T03:31:49.916Z,20.37
2023-01-05T03:34:48.511Z,28.00
2023-01-05T03:37:19.932Z,22.73
2023-01-05T03:39:47.582Z,26.20
2023-01-05T03:42:15.972Z,29.67
2023-01-05T03:44:45.832Z,21.67
2023-01-05T03:47:14.091Z,23.50
2023-01-05T03:49:40.592Z,21.60
2023-01-05T03:52:07.106Z,24.10
2023-01-05T03:54:33.617Z,20.37
2023-01-05T03:57:00.131Z,27.77
2023-01-05T03:59:26.618Z,23.17
2023-01-05T04:01:53.249Z,26.27
2023-01-05T04:04:19.913Z,25.20
2023-01-05T04:06:47.011Z,19.37
2023-01-05T04:09:13.478Z,23.00
2023-01-05T04:11:40.002Z,23.13
2023-01-05T04:14:06.635Z,25.03
2023-01-05T04:16:33.322Z,27.43
2023-01-05T04:18:59.933Z,20.67
2023-01-05T04:21:26.413Z,25.77
2023-01-05T04:23:52.895Z,25.77
2023-01-05T04:26:19.521Z,26.13
2023-01-05T04:28:46.022Z,23.10
2023-01-05T04:31:12.753Z,19.70
2023-01-05T04:33:40.303Z,26.03
2023-01-05T04:36:08.292Z,22.87
2023-01-05T04:38:34.757Z,19.17
2023-01-05T04:41:01.482Z,24.30
2023-01-05T04:43:28.005Z,26.83
2023-01-05T04:45:54.592Z,26.53
2023-01-05T04:48:21.237Z,21.70
2023-01-05T04:50:54.211Z,28.30
2023-01-05T04:53:20.750Z,22.40
2023-01-05T04:55:47.240Z,20.93
2023-01-05T04:58:13.720Z,30.20
2023-01-05T05:00:40.260Z,29.70
2023-01-05T05:03:07.405Z,21.90
2023-01-05T05:05:34.528Z,23.30
2023-01-05T05:08:01.339Z,21.23
2023-01-05T05:10:27.886Z,23.13
2023-01-05T05:12:54.468Z,25.97
2023-01-05T05:15:20.961Z,29.73
2023-01-05T05:17:48.404Z,33.10
2023-01-05T05:20:15.231Z,25.00
2023-01-05T05:22:41.768Z,22.80
2023-01-05T05:25:08.873Z,26.57
2023-01-05T05:27:35.846Z,21.77
2023-01-05T05:30:02.455Z,33.87
2023-01-05T05:32:29.217Z,23.87
2023-01-05T05:34:55.731Z,27.63
2023-01-05T05:37:22.264Z,27.73
2023-01-05T05:39:48.792Z,24.30
2023-01-05T05:42:15.340Z,27.83
2023-01-05T05:44:41.814Z,20.10
2023-01-05T05:47:08.366Z,20.30
2023-01-05T05:49:34.869Z,21.77
2023-01-05T05:52:01.357Z,24.77
2023-01-05T05:54:27.909Z,22.13
2023-01-05T05:56:54.429Z,20.63
2023-01-05T05:59:20.966Z,27.07
2023-01-05T06:01:47.618Z,31.33
2023-01-05T06:04:14.316Z,26.97
2023-01-05T06:06:40.845Z,28.17
2023-01-05T06:09:07.352Z,26.17
2023-01-05T06:11:34.014Z,24.47
2023-01-05T06:14:00.716Z,20.57
2023-01-05T06:16:27.215Z,26.93
2023-01-05T06:18:53.759Z,25.47
2023-01-05T06:21:22.158Z,26.53
2023-01-05T06:23:48.715Z,30.17
2023-01-05T06:26:15.300Z,25.53
2023-01-05T06:28:42.389Z,22.77
2023-01-05T06:31:08.944Z,29.53
2023-01-05T06:33:35.503Z,23.00
2023-01-05T06:36:02.299Z,26.60
2023-01-05T06:38:29.442Z,29.97
2023-01-05T06:40:56.120Z,31.80
2023-01-05T06:43:22.647Z,32.67
2023-01-05T06:45:49.296Z,27.87
2023-01-05T06:48:15.833Z,25.80
2023-01-05T06:50:42.313Z,25.53
2023-01-05T06:53:08.803Z,31.03
2023-01-05T06:55:35.446Z,22.37
2023-01-05T06:58:01.958Z,25.50
2023-01-05T07:00:29.128Z,29.13
2023-01-05T07:02:56.013Z,30.27
2023-01-05T07:05:24.494Z,32.17
2023-01-05T07:07:51.340Z,31.83
2023-01-05T07:10:18.534Z,25.63
2023-01-05T07:12:45.030Z,23.50
2023-01-05T07:15:11.708Z,26.43
2023-01-05T07:17:38.222Z,28.00
2023-01-05T07:20:06.465Z,29.17
2023-01-05T07:22:33.004Z,24.03
2023-01-05T07:25:00.088Z,25.83
2023-01-05T07:27:26.698Z,33.40
2023-01-05T07:29:53.296Z,28.67
2023-01-05T07:32:20.016Z,28.20
2023-01-05T07:34:54.901Z,22.83
2023-01-05T07:37:24.723Z,28.57
2023-01-05T07:39:51.815Z,33.83
2023-01-05T07:42:18.278Z,25.80
2023-01-05T07:44:45.467Z,26.67
2023-01-05T07:47:12.478Z,33.77
2023-01-05T07:49:39.213Z,28.33
2023-01-05T07:52:05.698Z,32.67
2023-01-05T07:54:32.185Z,28.90
2023-01-05T07:56:59.228Z,31.63
2023-01-05T07:59:25.996Z,27.37
2023-01-05T08:01:52.536Z,22.83
2023-01-05T08:04:19.185Z,30.93
2023-01-05T08:06:45.794Z,27.03
2023-01-05T08:09:30.948Z,30.60
2023-01-05T08:11:57.537Z,32.33
2023-01-05T08:14:24.039Z,26.23
2023-01-05T08:16:50.946Z,30.53
2023-01-05T08:19:17.525Z,32.93
2023-01-05T08:21:44.024Z,29.57
2023-01-05T08:24:10.905Z,29.30
2023-01-05T08:26:37.507Z,24.87
2023-01-05T08:29:04.046Z,28.37
2023-01-05T08:31:37.317Z,31.97
2023-01-05T08:34:05.485Z,37.47
2023-01-05T08:36:32.994Z,27.90
2023-01-05T08:39:01.726Z,28.03
2023-01-05T08:41:31.816Z,28.37
2023-01-05T08:44:00.524Z,36.37
2023-01-05T08:46:29.489Z,27.77
2023-01-05T08:48:58.704Z,26.00
2023-01-05T08:51:25.369Z,27.87
2023-01-05T08:53:52.492Z,31.33
2023-01-05T08:56:19.432Z,29.37
2023-01-05T08:58:46.562Z,32.57
2023-01-05T09:01:16.979Z,27.57
2023-01-05T09:03:43.943Z,32.40
2023-01-05T09:06:12.492Z,29.03
2023-01-05T09:08:40.745Z,30.50
2023-01-05T09:11:13.069Z,30.27
2023-01-05T09:13:40.986Z,31.30
2023-01-05T09:16:24.855Z,30.43
2023-01-05T09:19:04.984Z,30.30
2023-01-05T09:21:31.547Z,46.57
2023-01-05T09:23:59.031Z,24.40
2023-01-05T09:26:25.562Z,34.70
2023-01-05T09:28:52.114Z,26.60
2023-01-05T09:31:21.056Z,26.77
2023-01-05T09:33:48.373Z,30.23
2023-01-05T09:36:17.279Z,28.13
2023-01-05T09:38:48.770Z,33.33
2023-01-05T09:41:27.330Z,34.13
2023-01-05T09:44:00.852Z,33.03
2023-01-05T09:46:33.694Z,34.60
2023-01-05T09:49:03.247Z,33.47
2023-01-05T09:51:30.228Z,29.83
2023-01-05T09:54:00.451Z,37.60
2023-01-05T09:59:36.455Z,32.20
2023-01-05T10:02:21.392Z,34.93
2023-01-05T10:04:49.772Z,33.40
2023-01-05T10:07:37.403Z,32.63
2023-01-05T10:10:13.007Z,35.57
2023-01-05T10:13:05.693Z,39.93
2023-01-05T10:15:49.000Z,30.07
2023-01-05T10:18:19.159Z,31.90
2023-01-05T10:20:50.542Z,38.60
2023-01-05T10:23:53.036Z,34.77
2023-01-05T10:26:51.311Z,31.53
2023-01-05T10:29:27.672Z,29.90
2023-01-05T10:31:56.669Z,34.33
2023-01-05T10:34:26.170Z,30.73
2023-01-05T10:37:28.092Z,34.30
2023-01-05T10:40:14.078Z,35.33
2023-01-05T10:43:05.594Z,32.47
2023-01-05T10:45:32.441Z,30.87
2023-01-05T10:47:59.940Z,29.20
2023-01-05T10:50:39.782Z,26.53
2023-01-05T10:53:18.567Z,27.63
2023-01-05T10:55:54.686Z,29.43
2023-01-05T10:58:23.243Z,30.53
2023-01-05T11:00:51.499Z,25.27
2023-01-05T11:03:25.105Z,28.87
2023-01-05T11:06:00.351Z,30.43
2023-01-05T11:08:29.386Z,32.23
2023-01-05T11:10:59.065Z,34.63
2023-01-05T11:13:39.683Z,26.30
2023-01-05T11:16:10.727Z,26.27
2023-01-05T11:18:41.869Z,30.97
2023-01-05T11:21:24.982Z,27.03
2023-01-05T11:23:52.891Z,27.50
2023-01-05T11:26:19.349Z,25.60
2023-01-05T11:29:11.687Z,32.07
2023-01-05T11:31:55.224Z,28.47
2023-01-05T11:34:30.276Z,37.40
2023-01-05T11:37:04.044Z,31.10
2023-01-05T11:39:39.694Z,26.63
2023-01-05T11:42:28.298Z,27.00
2023-01-05T11:45:21.994Z,21.13
2023-01-05T11:47:54.465Z,25.50
2023-01-05T11:50:25.205Z,32.63
2023-01-05T11:53:02.844Z,34.53
2023-01-05T11:55:40.012Z,26.90
2023-01-05T11:58:31.379Z,27.47
2023-01-05T12:01:00.872Z,23.30
2023-01-05T12:03:45.645Z,23.43
2023-01-05T12:06:30.555Z,25.03
2023-01-05T12:09:05.633Z,22.70
2023-01-05T12:11:43.222Z,20.17
2023-01-05T12:14:37.949Z,29.43
2023-01-05T12:17:15.280Z,26.03
2023-01-05T12:20:15.452Z,31.20
2023-01-05T12:22:53.347Z,24.60
2023-01-05T12:25:47.975Z,30.83
2023-01-05T12:28:35.934Z,27.37
2023-01-05T12:34:13.280Z,22.37
2023-01-05T12:36:56.545Z,25.70
2023-01-05T12:39:56.558Z,29.67
2023-01-05T12:42:51.270Z,28.87
2023-01-05T12:45:34.716Z,28.77
2023-01-05T12:48:08.967Z,29.00
2023-01-05T12:51:03.919Z,29.90
2023-01-05T12:53:36.212Z,24.17
2023-01-05T12:56:14.530Z,34.33
2023-01-05T12:58:53.984Z,29.80
2023-01-05T13:01:26.548Z,27.07
2023-01-05T13:04:02.630Z,25.97
2023-01-05T13:06:37.754Z,25.43
2023-01-05T13:09:20.375Z,24.20
2023-01-05T13:12:07.645Z,33.37
2023-01-05T13:14:37.121Z,22.30
2023-01-05T13:17:22.742Z,26.17
2023-01-05T13:19:56.956Z,24.83
2023-01-05T13:22:33.802Z,23.90
2023-01-05T13:25:16.922Z,25.37
2023-01-05T13:27:43.491Z,24.73
2023-01-05T13:30:22.503Z,35.53
2023-01-05T13:32:57.623Z,26.00
2023-01-05T13:36:02.643Z,24.90
2023-01-05T13:38:56.827Z,25.00
2023-01-05T13:41:53.889Z,28.47
2023-01-05T13:44:29.740Z,28.30
2023-01-05T13:47:23.811Z,21.33
2023-01-05T13:50:17.144Z,26.43
2023-01-05T13:53:02.649Z,27.40
2023-01-05T13:55:31.545Z,26.10
2023-01-05T13:57:58.622Z,24.33
2023-01-05T14:00:30.472Z,23.90
2023-01-05T14:02:56.937Z,23.50
2023-01-05T14:05:31.830Z,21.53
2023-01-05T14:08:03.197Z,20.37
2023-01-05T14:10:32.085Z,24.00
2023-01-05T14:12:59.850Z,24.20
2023-01-05T14:15:34.819Z,28.93
2023-01-05T14:18:02.794Z,23.03
2023-01-05T14:20:44.898Z,20.27
2023-01-05T14:23:23.966Z,24.87
2023-01-05T14:25:58.353Z,19.00
2023-01-05T14:28:27.981Z,20.60
2023-01-05T14:31:19.050Z,26.27
2023-01-05T14:33:57.526Z,22.50
2023-01-05T14:36:39.430Z,19.97
2023-01-05T14:39:18.218Z,20.60
2023-01-05T14:41:57.986Z,23.40
2023-01-05T14:44:30.897Z,25.00
2023-01-05T14:46:58.245Z,27.07
2023-01-05T14:49:33.527Z,19.63
2023-01-05T14:52:02.465Z,20.57
2023-01-05T14:55:05.654Z,26.70
2023-01-05T14:57:49.921Z,21.67
2023-01-05T15:00:29.847Z,32.83
2023-01-05T15:03:24.232Z,27.17
2023-01-05T15:05:56.532Z,27.90
2023-01-05T15:09:02.255Z,28.20
2023-01-05T15:11:47.316Z,25.63
2023-01-05T15:14:32.932Z,18.67
2023-01-05T15:18:01.188Z,26.17
2023-01-05T15:20:38.652Z,22.83
2023-01-05T15:23:11.150Z,24.80
2023-01-05T15:26:03.404Z,24.60
2023-01-05T15:29:14.314Z,19.00
2023-01-05T15:31:48.665Z,26.10
2023-01-05T15:34:33.974Z,21.80
2023-01-05T15:37:17.527Z,22.47
2023-01-05T15:39:49.916Z,24.17
2023-01-05T15:42:39.073Z,28.67
2023-01-05T15:45:16.320Z,19.70
2023-01-05T15:47:43.265Z,21.27
2023-01-05T15:50:21.727Z,21.50
2023-01-05T15:52:54.618Z,19.53
2023-01-05T15:55:21.553Z,30.60
2023-01-05T15:57:57.318Z,25.27
2023-01-05T16:00:30.663Z,29.90
2023-01-05T16:02:57.720Z,29.93
2023-01-05T16:05:27.036Z,22.57
2023-01-05T16:08:00.059Z,24.20
2023-01-05T16:10:50.014Z,26.10
2023-01-05T16:13:27.507Z,24.33
2023-01-05T16:15:57.387Z,27.77
2023-01-05T16:18:29.945Z,26.47
2023-01-05T16:20:58.438Z,28.23
2023-01-05T16:23:37.150Z,29.47
2023-01-05T16:26:04.150Z,30.67
2023-01-05T16:28:30.743Z,24.90
2023-01-05T16:30:57.307Z,28.67
2023-01-05T16:33:28.076Z,30.63
2023-01-05T16:36:22.233Z,31.80
2023-01-05T16:38:49.240Z,29.83
2023-01-05T16:41:26.636Z,26.47
2023-01-05T16:43:56.690Z,32.57
2023-01-05T16:46:28.977Z,32.17
2023-01-05T16:48:58.547Z,33.57
2023-01-05T16:51:38.794Z,40.00
2023-01-05T16:54:22.613Z,31.57
2023-01-05T16:56:58.235Z,36.53
2023-01-05T16:59:32.968Z,29.60
2023-01-05T17:01:59.715Z,29.77
2023-01-05T17:04:26.335Z,30.60
2023-01-05T17:06:53.646Z,39.50
2023-01-05T17:09:30.919Z,32.27
2023-01-05T17:11:57.840Z,38.43
2023-01-05T17:14:26.510Z,40.33
2023-01-05T17:16:54.406Z,33.57
2023-01-05T17:19:21.616Z,28.27
2023-01-05T17:21:56.702Z,31.93
2023-01-05T17:24:23.924Z,34.23
2023-01-05T17:26:50.451Z,35.47
2023-01-05T17:29:28.926Z,30.20
2023-01-05T17:31:56.175Z,34.57
2023-01-05T17:34:23.577Z,37.93
2023-01-05T17:36:53.464Z,33.33
2023-01-05T17:39:22.491Z,28.23
2023-01-05T17:41:49.821Z,35.13
2023-01-05T17:44:17.136Z,35.83
2023-01-05T17:46:45.769Z,30.73
2023-01-05T17:49:18.671Z,31.33
2023-01-05T17:51:45.208Z,25.20
2023-01-05T17:54:12.088Z,29.47
2023-01-05T17:56:38.911Z,31.77
2023-01-05T17:59:05.922Z,31.40
2023-01-05T18:01:35.536Z,33.10
2023-01-05T18:04:02.267Z,33.30
2023-01-05T18:06:28.949Z,28.97
2023-01-05T18:08:55.583Z,27.70
2023-01-05T18:11:22.063Z,32.83
2023-01-05T18:13:48.940Z,33.20
2023-01-05T18:16:15.629Z,29.37
2023-01-05T18:18:42.291Z,28.43
2023-01-05T18:21:09.147Z,26.17
2023-01-05T18:23:39.033Z,25.90
2023-01-05T18:26:08.830Z,29.27
2023-01-05T18:28:36.729Z,27.03
2023-01-05T18:31:14.211Z,25.90
2023-01-05T18:33:41.147Z,27.20
2023-01-05T18:36:09.615Z,24.23
2023-01-05T18:38:37.775Z,19.93
2023-01-05T18:41:04.772Z,23.30
2023-01-05T18:43:34.914Z,30.33
2023-01-05T18:46:02.796Z,27.17
2023-01-05T18:48:30.234Z,20.07
2023-01-05T18:50:56.730Z,23.00
2023-01-05T18:53:23.792Z,27.43
2023-01-05T18:55:50.408Z,25.70
2023-01-05T18:58:17.090Z,23.37
2023-01-05T19:00:45.479Z,22.73
2023-01-05T19:03:12.041Z,20.00
2023-01-05T19:05:42.844Z,21.80
2023-01-05T19:08:11.146Z,22.27
2023-01-05T19:10:38.066Z,21.20
2023-01-05T19:13:04.985Z,20.00
2023-01-05T19:15:36.675Z,21.83
2023-01-05T19:18:03.465Z,25.43
2023-01-05T19:20:31.734Z,21.13
2023-01-05T19:22:59.849Z,26.23
2023-01-05T19:25:26.453Z,26.20
2023-01-05T19:27:52.995Z,17.87
2023-01-05T19:30:20.573Z,19.83
2023-01-05T19:32:47.116Z,20.03
2023-01-05T19:35:15.015Z,19.73
2023-01-05T19:37:42.538Z,21.73
2023-01-05T19:40:10.251Z,22.07
2023-01-05T19:42:37.173Z,15.20
2023-01-05T19:45:04.132Z,20.63
2023-01-05T19:47:31.026Z,21.90
2023-01-05T19:49:57.543Z,18.43
2023-01-05T19:52:29.555Z,17.80
2023-01-05T19:54:56.540Z,22.13
2023-01-05T19:57:23.154Z,20.93
2023-01-05T19:59:51.308Z,22.23
2023-01-05T20:02:18.095Z,20.33
2023-01-05T20:04:46.041Z,20.03
2023-01-05T20:07:13.037Z,19.87
2023-01-05T20:09:39.649Z,22.87
2023-01-05T20:12:14.322Z,23.77
2023-01-05T20:14:42.552Z,27.57
2023-01-05T20:17:10.978Z,25.07
2023-01-05T20:19:40.319Z,22.50
2023-01-05T20:22:11.941Z,26.40
2023-01-05T20:24:38.466Z,30.40
2023-01-05T20:27:12.991Z,26.17
2023-01-05T20:29:40.615Z,31.73
2023-01-05T20:32:14.250Z,35.60
2023-01-05T20:34:42.952Z,27.67
2023-01-05T20:37:10.945Z,36.50
2023-01-05T20:39:39.107Z,28.43
2023-01-05T20:42:06.007Z,29.73
2023-01-05T20:44:35.491Z,32.93
2023-01-05T20:47:03.742Z,29.23
2023-01-05T20:49:30.359Z,23.33
2023-01-05T20:51:57.301Z,28.17
2023-01-05T20:54:24.387Z,22.83
2023-01-05T20:56:51.046Z,24.90
2023-01-05T20:59:20.458Z,23.23
2023-01-05T21:01:47.268Z,22.93
2023-01-05T21:04:13.966Z,26.57
2023-01-05T21:06:41.799Z,25.73
2023-01-05T21:09:08.751Z,26.20
2023-01-05T21:11:36.477Z,26.77
2023-01-05T21:14:06.204Z,23.03
2023-01-05T21:16:35.736Z,25.60
2023-01-05T21:19:02.715Z,24.97
2023-01-05T21:21:30.514Z,22.93
2023-01-05T21:23:57.247Z,19.30
2023-01-05T21:26:24.584Z,29.97
2023-01-05T21:28:53.163Z,19.57
2023-01-05T21:31:25.028Z,26.17
2023-01-05T21:33:52.206Z,24.07
2023-01-05T21:36:24.821Z,23.67
2023-01-05T21:39:03.649Z,26.60
2023-01-05T21:41:53.545Z,25.87
2023-01-05T21:44:20.711Z,24.47
2023-01-05T21:46:48.396Z,20.00
2023-01-05T21:49:15.933Z,21.73
2023-01-05T21:52:01.283Z,20.43
2023-01-05T21:54:46.785Z,19.60
2023-01-05T21:57:13.692Z,19.20
2023-01-05T21:59:40.832Z,23.73
2023-01-05T22:02:07.496Z,22.33
2023-01-05T22:04:34.171Z,17.70
2023-01-05T22:07:00.727Z,10.17
2023-01-05T22:09:27.398Z,10.70
2023-01-05T22:11:53.932Z,7.67
2023-01-05T22:14:20.423Z,7.63
2023-01-05T22:16:47.013Z,9.73
2023-01-05T22:19:13.516Z,8.13
2023-01-05T22:21:42.813Z,8.70
2023-01-05T22:24:12.197Z,8.00
2023-01-05T22:26:38.737Z,9.17
2023-01-05T22:29:05.705Z,8.77
2023-01-05T22:31:32.802Z,11.27
2023-01-05T22:34:00.625Z,11.60
2023-01-05T22:36:28.771Z,12.60
2023-01-05T22:38:55.960Z,12.47
2023-01-05T22:41:25.805Z,15.03
2023-01-05T22:43:52.874Z,14.77
2023-01-05T22:46:22.870Z,13.80
2023-01-05T22:48:51.614Z,13.03
2023-01-05T22:51:24.659Z,12.00
2023-01-05T22:53:51.883Z,12.73
2023-01-05T22:56:20.056Z,12.50
2023-01-05T22:58:47.121Z,15.10
2023-01-05T23:01:31.630Z,14.03
2023-01-05T23:04:00.399Z,15.70
2023-01-05T23:06:27.354Z,13.37
2023-01-05T23:08:55.780Z,12.27
2023-01-05T23:11:28.550Z,10.90
2023-01-05T23:13:56.932Z,13.93
2023-01-05T23:16:25.369Z,10.47
2023-01-05T23:18:53.388Z,9.77
2023-01-05T23:21:22.278Z,9.27
2023-01-05T23:23:51.583Z,8.77
2023-01-05T23:26:18.133Z,7.93
2023-01-05T23:28:45.699Z,9.10
2023-01-05T23:31:16.481Z,9.97
2023-01-05T23:33:44.041Z,11.10
2023-01-05T23:36:12.715Z,8.03
2023-01-05T23:38:40.023Z,4.87
2023-01-05T23:41:08.482Z,7.73
2023-01-05T23:43:38.076Z,7.43
2023-01-05T23:46:10.594Z,7.00
2023-01-05T23:48:38.581Z,6.10
2023-01-05T23:51:07.790Z,6.53
2023-01-05T23:53:34.433Z,5.87
2023-01-05T23:56:25.623Z,9.90
2023-01-05T23:59:00.176Z,5.53
